createdAt,value
2022-10-19T00:00:51.743Z,93.86
2022-10-19T00:04:07.958Z,93.84
2022-10-19T00:07:03.126Z,93.85
2022-10-19T00:10:25.400Z,94.28
2022-10-19T00:13:31.788Z,94.31
2022-10-19T00:16:31.107Z,94.50
2022-10-19T00:19:33.112Z,94.54
2022-10-19T00:22:19.929Z,94.84
2022-10-19T00:25:08.513Z,94.89
2022-10-19T00:27:45.504Z,94.61
2022-10-19T00:30:23.346Z,95.09
2022-10-19T00:33:12.026Z,95.25
2022-10-19T00:35:49.856Z,95.37
2022-10-19T00:38:43.957Z,95.96
2022-10-19T00:41:15.633Z,96.27
2022-10-19T00:43:58.704Z,97.16
2022-10-19T00:46:32.294Z,97.95
2022-10-19T00:49:13.277Z,98.19
2022-10-19T00:51:50.719Z,97.91
2022-10-19T00:54:22.455Z,97.61
2022-10-19T00:56:53.484Z,97.75
2022-10-19T00:59:23.595Z,97.84
2022-10-19T01:01:53.529Z,98.23
2022-10-19T01:04:23.829Z,97.59
2022-10-19T01:06:53.985Z,97.13
2022-10-19T01:09:22.509Z,96.97
2022-10-19T01:12:02.037Z,96.74
2022-10-19T01:15:01.885Z,96.68
2022-10-19T01:17:42.143Z,96.86
2022-10-19T01:20:31.698Z,96.58
2022-10-19T01:23:17.574Z,96.21
2022-10-19T01:26:39.898Z,96.13
2022-10-19T01:29:43.154Z,95.98
2022-10-19T01:32:40.061Z,95.70
2022-10-19T01:35:08.146Z,95.73
2022-10-19T01:37:56.464Z,95.84
2022-10-19T01:40:31.110Z,96.23
2022-10-19T01:43:25.413Z,96.46
2022-10-19T01:46:06.658Z,96.30
2022-10-19T01:48:41.839Z,95.82
2022-10-19T01:51:18.526Z,95.78
2022-10-19T01:53:51.378Z,95.91
2022-10-19T01:56:24.369Z,96.76
2022-10-19T01:58:56.221Z,97.08
2022-10-19T02:01:28.095Z,97.45
2022-10-19T02:03:57.967Z,97.99
2022-10-19T02:06:26.220Z,97.88
2022-10-19T02:08:54.677Z,97.51
2022-10-19T02:11:24.333Z,97.61
2022-10-19T02:13:59.423Z,97.67
2022-10-19T02:16:35.041Z,97.62
2022-10-19T02:19:05.607Z,97.66
2022-10-19T02:21:33.624Z,97.33
2022-10-19T02:24:01.689Z,96.74
2022-10-19T02:26:29.726Z,96.03
2022-10-19T02:28:58.259Z,95.36
2022-10-19T02:31:26.890Z,95.64
2022-10-19T02:33:55.189Z,96.01
2022-10-19T02:36:24.374Z,96.22
2022-10-19T02:38:52.735Z,96.38
2022-10-19T02:41:26.588Z,96.30
2022-10-19T02:44:04.285Z,96.65
2022-10-19T02:46:41.970Z,96.71
2022-10-19T02:49:12.094Z,96.75
2022-10-19T02:51:55.945Z,96.72
2022-10-19T02:54:24.989Z,97.08
2022-10-19T02:56:53.087Z,97.15
2022-10-19T02:59:21.111Z,97.30
2022-10-19T03:01:49.280Z,97.04
2022-10-19T03:04:17.668Z,96.75
2022-10-19T03:06:45.655Z,96.60
2022-10-19T03:09:13.775Z,96.65
2022-10-19T03:11:41.740Z,97.30
2022-10-19T03:14:10.031Z,97.63
2022-10-19T03:16:37.983Z,97.97
2022-10-19T03:19:06.511Z,97.88
2022-10-19T03:21:35.135Z,97.86
2022-10-19T03:24:03.163Z,97.68
2022-10-19T03:26:31.363Z,97.88
2022-10-19T03:28:59.488Z,97.93
2022-10-19T03:31:27.620Z,98.10
2022-10-19T03:33:55.697Z,98.05
2022-10-19T03:36:32.494Z,97.80
2022-10-19T03:39:02.336Z,97.49
2022-10-19T03:41:33.147Z,97.13
2022-10-19T03:44:01.734Z,96.85
2022-10-19T03:46:30.365Z,96.68
2022-10-19T03:48:58.465Z,96.67
2022-10-19T03:51:28.877Z,96.90
2022-10-19T03:54:05.653Z,97.02
2022-10-19T03:56:35.017Z,97.14
2022-10-19T03:59:05.690Z,98.01
2022-10-19T04:01:35.250Z,98.32
2022-10-19T04:04:12.359Z,98.23
2022-10-19T04:06:42.603Z,97.94
2022-10-19T04:09:14.851Z,97.99
2022-10-19T04:11:43.262Z,97.79
2022-10-19T04:14:19.227Z,97.43
2022-10-19T04:16:55.489Z,97.13
2022-10-19T04:19:23.389Z,96.72
2022-10-19T04:21:51.339Z,96.45
2022-10-19T04:24:19.486Z,96.14
2022-10-19T04:26:52.908Z,96.01
2022-10-19T04:29:25.062Z,95.80
2022-10-19T04:31:56.066Z,95.86
2022-10-19T04:34:24.492Z,95.73
2022-10-19T04:36:53.352Z,95.88
2022-10-19T04:39:21.356Z,96.00
2022-10-19T04:41:49.358Z,95.86
2022-10-19T04:44:17.429Z,95.92
2022-10-19T04:46:45.375Z,96.01
2022-10-19T04:49:16.397Z,95.83
2022-10-19T04:51:47.664Z,95.74
2022-10-19T04:54:15.652Z,95.75
2022-10-19T04:56:43.730Z,95.47
2022-10-19T04:59:11.657Z,95.27
2022-10-19T05:01:46.347Z,95.27
2022-10-19T05:04:15.408Z,95.04
2022-10-19T05:06:43.493Z,94.46
2022-10-19T05:09:11.662Z,94.04
2022-10-19T05:11:39.784Z,93.74
2022-10-19T05:14:07.675Z,93.57
2022-10-19T05:16:35.709Z,93.33
2022-10-19T05:19:04.012Z,92.81
2022-10-19T05:21:31.870Z,92.57
2022-10-19T05:23:59.818Z,92.14
2022-10-19T05:26:29.140Z,91.74
2022-10-19T05:29:01.976Z,91.38
2022-10-19T05:31:34.571Z,91.22
2022-10-19T05:34:04.269Z,90.59
2022-10-19T05:36:40.012Z,90.30
2022-10-19T05:39:18.480Z,90.06
2022-10-19T05:41:47.541Z,89.09
2022-10-19T05:44:18.452Z,88.09
2022-10-19T05:46:46.875Z,88.16
2022-10-19T05:49:16.700Z,87.40
2022-10-19T05:51:45.150Z,88.07
2022-10-19T05:54:14.345Z,88.54
2022-10-19T05:56:42.856Z,87.86
2022-10-19T05:59:15.407Z,86.73
2022-10-19T06:01:43.418Z,84.88
2022-10-19T06:04:14.172Z,83.51
2022-10-19T06:06:43.105Z,82.69
2022-10-19T06:09:11.119Z,82.97
2022-10-19T06:11:41.456Z,81.84
2022-10-19T06:14:13.360Z,82.70
2022-10-19T06:16:42.185Z,82.61
2022-10-19T06:19:10.306Z,81.81
2022-10-19T06:21:40.668Z,81.04
2022-10-19T06:24:13.171Z,81.23
2022-10-19T06:26:41.394Z,79.73
2022-10-19T06:29:09.938Z,79.16
2022-10-19T06:31:38.508Z,77.65
2022-10-19T06:34:06.569Z,76.29
2022-10-19T06:36:34.942Z,74.67
2022-10-19T06:39:05.411Z,75.13
2022-10-19T06:41:34.806Z,72.91
2022-10-19T06:44:17.181Z,73.02
2022-10-19T06:46:45.258Z,71.63
2022-10-19T06:49:14.287Z,71.58
2022-10-19T06:51:42.597Z,72.51
2022-10-19T06:54:10.822Z,73.12
2022-10-19T06:56:39.043Z,70.75
2022-10-19T06:59:07.249Z,68.45
2022-10-19T07:01:35.693Z,67.06
2022-10-19T07:04:03.833Z,65.56
2022-10-19T07:06:31.951Z,66.30
2022-10-19T07:09:00.191Z,66.40
2022-10-19T07:11:28.681Z,65.19
2022-10-19T07:13:56.796Z,65.30
2022-10-19T07:16:25.856Z,65.73
2022-10-19T07:18:54.326Z,63.72
2022-10-19T07:21:24.055Z,62.52
2022-10-19T07:23:52.088Z,62.69
2022-10-19T07:26:24.688Z,62.77
2022-10-19T07:29:06.161Z,63.46
2022-10-19T07:31:37.730Z,61.00
2022-10-19T07:34:06.502Z,58.72
2022-10-19T07:36:37.062Z,57.95
2022-10-19T07:39:07.455Z,57.53
2022-10-19T07:41:35.759Z,57.32
2022-10-19T07:44:04.374Z,56.22
2022-10-19T07:46:33.885Z,55.09
2022-10-19T07:49:02.170Z,54.42
2022-10-19T07:51:30.432Z,54.82
2022-10-19T07:53:59.127Z,54.39
2022-10-19T07:56:28.119Z,54.09
2022-10-19T07:58:58.353Z,53.53
2022-10-19T08:01:35.233Z,53.13
2022-10-19T08:06:51.688Z,51.48
2022-10-19T08:09:47.400Z,51.78
2022-10-19T08:12:11.180Z,51.32
2022-10-19T08:14:42.863Z,51.21
2022-10-19T08:17:12.093Z,51.81
2022-10-19T08:19:43.550Z,51.57
2022-10-19T08:22:11.914Z,51.23
2022-10-19T08:24:39.864Z,51.84
2022-10-19T08:27:08.060Z,50.83
2022-10-19T08:29:36.333Z,52.03
2022-10-19T08:32:04.371Z,50.14
2022-10-19T08:34:33.557Z,50.27
2022-10-19T08:37:10.182Z,50.73
2022-10-19T08:39:48.125Z,49.78
2022-10-19T08:42:29.232Z,49.16
2022-10-19T08:45:08.796Z,49.68
2022-10-19T08:48:00.634Z,48.10
2022-10-19T08:50:41.020Z,47.66
2022-10-19T08:53:32.672Z,49.13
2022-10-19T08:56:12.425Z,48.53
2022-10-19T08:58:55.258Z,48.48
2022-10-19T09:01:37.646Z,47.70
2022-10-19T09:04:26.738Z,48.02
2022-10-19T09:07:22.409Z,47.38
2022-10-19T09:10:09.267Z,46.64
2022-10-19T09:13:01.827Z,45.33
2022-10-19T09:15:45.034Z,45.07
2022-10-19T09:18:34.727Z,45.46
2022-10-19T09:21:13.079Z,45.27
2022-10-19T09:23:58.533Z,45.44
2022-10-19T09:26:32.402Z,45.59
2022-10-19T09:29:06.621Z,45.57
2022-10-19T09:31:40.538Z,45.29
2022-10-19T09:34:24.492Z,46.04
2022-10-19T09:36:57.160Z,46.90
2022-10-19T09:39:29.515Z,47.65
2022-10-19T09:42:10.634Z,47.87
2022-10-19T09:44:39.244Z,48.19
2022-10-19T09:47:43.756Z,48.74
2022-10-19T09:50:21.352Z,49.37
2022-10-19T09:52:53.566Z,49.71
2022-10-19T09:58:29.138Z,49.96
2022-10-19T10:01:01.533Z,49.86
2022-10-19T10:03:43.652Z,47.35
2022-10-19T10:06:17.470Z,45.58
2022-10-19T10:08:48.789Z,46.58
2022-10-19T10:11:26.797Z,45.36
2022-10-19T10:13:57.907Z,44.73
2022-10-19T10:16:30.525Z,44.45
2022-10-19T10:19:01.571Z,44.66
2022-10-19T10:21:46.323Z,44.21
2022-10-19T10:24:14.200Z,43.34
2022-10-19T10:26:56.656Z,43.08
2022-10-19T10:29:32.681Z,43.36
2022-10-19T10:32:09.040Z,43.06
2022-10-19T10:34:54.003Z,42.93
2022-10-19T10:37:44.299Z,43.05
2022-10-19T10:40:26.984Z,43.48
2022-10-19T10:42:58.001Z,43.04
2022-10-19T10:45:33.704Z,43.99
2022-10-19T10:48:27.266Z,42.60
2022-10-19T10:50:57.738Z,42.80
2022-10-19T10:53:38.875Z,41.82
2022-10-19T10:56:22.666Z,42.68
2022-10-19T10:59:30.675Z,42.32
2022-10-19T11:02:14.104Z,42.37
2022-10-19T11:04:52.345Z,41.47
2022-10-19T11:07:24.240Z,41.08
2022-10-19T11:10:10.016Z,41.64
2022-10-19T11:12:44.270Z,41.46
2022-10-19T11:15:24.417Z,41.73
2022-10-19T11:18:05.155Z,41.82
2022-10-19T11:20:35.171Z,42.35
2022-10-19T11:23:16.178Z,42.71
2022-10-19T11:25:44.134Z,43.12
2022-10-19T11:28:50.442Z,43.45
2022-10-19T11:31:25.581Z,43.85
2022-10-19T11:34:07.018Z,44.31
2022-10-19T11:36:46.561Z,44.70
2022-10-19T11:39:20.220Z,45.36
2022-10-19T11:42:09.820Z,45.67
2022-10-19T11:44:43.860Z,46.14
2022-10-19T11:47:37.397Z,46.52
2022-10-19T11:50:44.110Z,46.99
2022-10-19T11:53:42.380Z,47.35
2022-10-19T11:56:19.682Z,47.45
2022-10-19T11:59:33.032Z,47.58
2022-10-19T12:02:33.719Z,48.08
2022-10-19T12:05:10.380Z,48.62
2022-10-19T12:08:01.921Z,49.18
2022-10-19T12:10:48.902Z,49.19
2022-10-19T12:13:22.245Z,49.05
2022-10-19T12:15:56.462Z,49.27
2022-10-19T12:18:45.517Z,49.31
2022-10-19T12:21:29.527Z,49.27
2022-10-19T12:23:59.964Z,49.87
2022-10-19T12:26:32.565Z,50.05
2022-10-19T12:29:04.219Z,49.77
2022-10-19T12:31:33.464Z,50.18
2022-10-19T12:34:13.367Z,49.86
2022-10-19T12:37:15.644Z,50.01
2022-10-19T12:39:53.679Z,49.55
2022-10-19T12:42:21.636Z,48.92
2022-10-19T12:45:25.151Z,49.19
2022-10-19T12:48:08.472Z,49.35
2022-10-19T12:51:01.163Z,49.45
2022-10-19T12:53:38.099Z,49.49
2022-10-19T12:56:23.155Z,49.50
2022-10-19T12:58:59.809Z,49.77
2022-10-19T13:01:46.454Z,50.00
2022-10-19T13:04:19.343Z,50.24
2022-10-19T13:06:57.387Z,50.22
2022-10-19T13:09:32.625Z,49.81
2022-10-19T13:12:19.601Z,49.37
2022-10-19T13:15:02.281Z,49.62
2022-10-19T13:17:54.413Z,49.70
2022-10-19T13:20:24.897Z,49.64
2022-10-19T13:23:04.832Z,50.03
2022-10-19T13:25:36.848Z,50.67
2022-10-19T13:28:09.347Z,51.09
2022-10-19T13:30:38.368Z,51.74
2022-10-19T13:33:31.686Z,52.54
2022-10-19T13:35:59.638Z,52.83
2022-10-19T13:38:27.644Z,53.17
2022-10-19T13:41:09.007Z,53.28
2022-10-19T13:44:01.951Z,53.65
2022-10-19T13:46:29.807Z,53.54
2022-10-19T13:49:19.258Z,53.66
2022-10-19T13:52:12.389Z,53.98
2022-10-19T13:55:27.971Z,54.41
2022-10-19T13:58:14.231Z,54.61
2022-10-19T14:01:19.925Z,55.24
2022-10-19T14:03:50.886Z,56.08
2022-10-19T14:06:43.626Z,56.88
2022-10-19T14:09:22.666Z,57.72
2022-10-19T14:11:53.691Z,58.19
2022-10-19T14:14:24.486Z,58.78
2022-10-19T14:17:03.910Z,59.10
2022-10-19T14:19:45.523Z,59.78
2022-10-19T14:22:19.978Z,60.28
2022-10-19T14:24:48.174Z,60.43
2022-10-19T14:27:25.720Z,60.54
2022-10-19T14:29:55.235Z,60.72
2022-10-19T14:32:28.500Z,61.04
2022-10-19T14:35:16.416Z,61.35
2022-10-19T14:37:47.612Z,61.67
2022-10-19T14:40:26.444Z,61.82
2022-10-19T14:42:58.219Z,61.99
2022-10-19T14:45:31.876Z,62.23
2022-10-19T14:48:02.758Z,62.41
2022-10-19T14:50:41.941Z,62.34
2022-10-19T14:53:41.193Z,62.14
2022-10-19T14:56:12.109Z,62.32
2022-10-19T14:58:46.330Z,62.72
2022-10-19T15:01:17.827Z,62.82
2022-10-19T15:03:47.154Z,63.29
2022-10-19T15:06:42.396Z,63.54
2022-10-19T15:09:36.999Z,63.56
2022-10-19T15:12:18.373Z,63.48
2022-10-19T15:14:47.800Z,63.40
2022-10-19T15:17:24.702Z,63.43
2022-10-19T15:19:55.691Z,63.25
2022-10-19T15:22:38.709Z,63.58
2022-10-19T15:25:06.582Z,63.89
2022-10-19T15:27:37.902Z,63.79
2022-10-19T15:30:18.092Z,63.76
2022-10-19T15:32:49.005Z,63.84
2022-10-19T15:35:20.126Z,63.75
2022-10-19T15:37:50.373Z,64.04
2022-10-19T15:40:34.034Z,64.26
2022-10-19T15:43:32.671Z,64.41
2022-10-19T15:46:02.375Z,64.65
2022-10-19T15:48:51.176Z,64.63
2022-10-19T15:51:25.044Z,64.78
2022-10-19T15:53:54.359Z,64.86
2022-10-19T15:56:25.114Z,65.18
2022-10-19T15:58:55.983Z,65.23
2022-10-19T16:01:29.709Z,65.41
2022-10-19T16:03:58.326Z,65.44
2022-10-19T16:06:29.081Z,65.61
2022-10-19T16:08:58.835Z,65.66
2022-10-19T16:11:29.123Z,65.83
2022-10-19T16:13:57.231Z,65.94
2022-10-19T16:16:28.074Z,66.48
2022-10-19T16:18:56.767Z,66.32
2022-10-19T16:21:33.681Z,67.10
2022-10-19T16:24:02.104Z,67.50
2022-10-19T16:26:32.226Z,67.17
2022-10-19T16:29:01.489Z,67.34
2022-10-19T16:31:29.997Z,67.20
2022-10-19T16:33:57.998Z,67.43
2022-10-19T16:36:26.204Z,67.26
2022-10-19T16:38:54.436Z,67.20
2022-10-19T16:41:22.920Z,67.22
2022-10-19T16:43:55.535Z,67.45
2022-10-19T16:46:25.508Z,67.51
2022-10-19T16:48:53.866Z,67.58
2022-10-19T16:51:34.795Z,68.05
2022-10-19T16:54:05.616Z,68.57
2022-10-19T16:56:35.426Z,68.48
2022-10-19T16:59:06.858Z,68.51
2022-10-19T17:01:35.837Z,68.76
2022-10-19T17:04:04.083Z,68.66
2022-10-19T17:06:34.326Z,68.78
2022-10-19T17:11:51.849Z,68.54
2022-10-19T17:14:23.051Z,68.72
2022-10-19T17:16:51.031Z,68.71
2022-10-19T17:19:19.002Z,68.75
2022-10-19T17:21:49.340Z,69.25
2022-10-19T17:24:22.091Z,69.28
2022-10-19T17:26:52.919Z,69.62
2022-10-19T17:29:22.442Z,70.34
2022-10-19T17:31:50.970Z,70.83
2022-10-19T17:34:19.342Z,71.14
2022-10-19T17:36:47.856Z,70.88
2022-10-19T17:39:25.727Z,70.82
2022-10-19T17:42:01.880Z,70.98
2022-10-19T17:44:31.566Z,71.06
2022-10-19T17:47:01.533Z,71.70
2022-10-19T17:49:31.259Z,72.22
2022-10-19T17:51:59.514Z,72.29
2022-10-19T17:54:27.703Z,73.03
2022-10-19T17:56:55.879Z,73.17
2022-10-19T17:59:34.995Z,73.52
2022-10-19T18:02:11.117Z,73.76
2022-10-19T18:04:39.270Z,74.07
2022-10-19T18:07:07.310Z,73.96
2022-10-19T18:09:35.348Z,73.97
2022-10-19T18:12:05.039Z,73.67
2022-10-19T18:14:35.612Z,73.74
2022-10-19T18:17:03.641Z,74.11
2022-10-19T18:19:31.966Z,74.61
2022-10-19T18:22:00.045Z,75.13
2022-10-19T18:24:28.211Z,75.07
2022-10-19T18:26:56.799Z,74.85
2022-10-19T18:29:27.076Z,75.16
2022-10-19T18:31:55.434Z,77.18
2022-10-19T18:34:27.782Z,77.96
2022-10-19T18:36:55.960Z,77.13
2022-10-19T18:39:24.322Z,76.73
2022-10-19T18:41:56.488Z,76.83
2022-10-19T18:44:27.911Z,78.39
2022-10-19T18:46:57.200Z,78.15
2022-10-19T18:49:25.706Z,77.76
2022-10-19T18:51:55.482Z,77.90
2022-10-19T18:54:27.965Z,77.78
2022-10-19T18:56:56.351Z,77.63
2022-10-19T18:59:24.990Z,77.46
2022-10-19T19:01:53.426Z,77.35
2022-10-19T19:04:21.532Z,77.70
2022-10-19T19:06:49.766Z,78.10
2022-10-19T19:09:19.050Z,78.12
2022-10-19T19:11:47.449Z,77.77
2022-10-19T19:14:18.681Z,77.36
2022-10-19T19:16:46.917Z,76.98
2022-10-19T19:19:16.644Z,76.85
2022-10-19T19:21:45.880Z,76.52
2022-10-19T19:24:17.716Z,76.10
2022-10-19T19:26:50.217Z,75.85
2022-10-19T19:29:20.085Z,75.72
2022-10-19T19:31:49.111Z,75.69
2022-10-19T19:34:20.327Z,75.56
2022-10-19T19:36:49.148Z,75.31
2022-10-19T19:39:23.692Z,75.14
2022-10-19T19:41:51.714Z,74.74
2022-10-19T19:44:19.889Z,74.56
2022-10-19T19:46:48.253Z,74.65
2022-10-19T19:49:16.942Z,74.64
2022-10-19T19:51:45.066Z,74.56
2022-10-19T19:54:13.131Z,74.38
2022-10-19T19:56:42.490Z,74.21
2022-10-19T19:59:13.080Z,74.12
2022-10-19T20:01:42.262Z,74.12
2022-10-19T20:04:10.988Z,74.25
2022-10-19T20:06:40.628Z,74.45
2022-10-19T20:09:09.322Z,74.44
2022-10-19T20:11:42.111Z,74.44
2022-10-19T20:14:12.305Z,74.32
2022-10-19T20:16:43.001Z,74.15
2022-10-19T20:19:13.625Z,74.19
2022-10-19T20:21:42.217Z,74.44
2022-10-19T20:24:10.704Z,74.05
2022-10-19T20:26:38.723Z,73.88
2022-10-19T20:29:07.077Z,73.93
2022-10-19T20:31:39.677Z,73.70
2022-10-19T20:34:15.319Z,73.37
2022-10-19T20:36:47.317Z,73.01
2022-10-19T20:39:15.332Z,72.64
2022-10-19T20:41:43.469Z,71.60
2022-10-19T20:44:11.574Z,71.22
2022-10-19T20:46:39.972Z,71.01
2022-10-19T20:49:08.049Z,70.75
2022-10-19T20:51:36.970Z,70.60
2022-10-19T20:54:08.666Z,70.21
2022-10-19T20:56:39.064Z,70.14
2022-10-19T20:59:13.266Z,70.01
2022-10-19T21:01:42.482Z,69.53
2022-10-19T21:04:13.280Z,68.97
2022-10-19T21:06:46.510Z,68.88
2022-10-19T21:09:17.175Z,68.96
2022-10-19T21:11:48.934Z,69.17
2022-10-19T21:14:28.332Z,69.10
2022-10-19T21:16:58.702Z,69.07
2022-10-19T21:19:28.468Z,68.94
2022-10-19T21:22:02.342Z,68.87
2022-10-19T21:24:36.186Z,68.53
2022-10-19T21:27:07.621Z,68.04
2022-10-19T21:29:37.274Z,67.63
2022-10-19T21:32:05.518Z,67.36
2022-10-19T21:34:33.554Z,67.23
2022-10-19T21:37:01.570Z,66.79
2022-10-19T21:39:29.660Z,65.85
2022-10-19T21:41:58.109Z,65.33
2022-10-19T21:44:26.290Z,64.63
2022-10-19T21:46:54.311Z,64.70
2022-10-19T21:49:22.456Z,64.59
2022-10-19T21:51:53.941Z,64.24
2022-10-19T21:54:25.342Z,63.89
2022-10-19T21:56:55.211Z,63.18
2022-10-19T21:59:23.835Z,63.05
2022-10-19T22:01:51.899Z,62.42
2022-10-19T22:04:20.908Z,62.22
2022-10-19T22:06:49.040Z,61.99
2022-10-19T22:09:20.478Z,61.74
2022-10-19T22:11:48.907Z,61.59
2022-10-19T22:14:17.637Z,61.52
2022-10-19T22:16:45.979Z,61.36
2022-10-19T22:19:14.280Z,61.32
2022-10-19T22:21:42.710Z,61.65
2022-10-19T22:24:14.347Z,61.79
2022-10-19T22:26:46.214Z,61.99
2022-10-19T22:29:14.476Z,62.13
2022-10-19T22:31:43.156Z,62.27
2022-10-19T22:34:14.334Z,62.59
2022-10-19T22:36:43.222Z,63.03
2022-10-19T22:39:11.991Z,63.15
2022-10-19T22:41:40.027Z,63.78
2022-10-19T22:44:08.105Z,65.07
2022-10-19T22:46:36.103Z,65.38
2022-10-19T22:49:05.208Z,65.75
2022-10-19T22:51:33.222Z,66.16
2022-10-19T22:54:01.374Z,66.40
2022-10-19T22:56:29.722Z,66.57
2022-10-19T22:59:02.244Z,66.89
2022-10-19T23:01:30.196Z,67.20
2022-10-19T23:03:58.868Z,67.49
2022-10-19T23:06:27.123Z,68.29
2022-10-19T23:08:55.124Z,68.23
2022-10-19T23:11:23.375Z,68.83
2022-10-19T23:13:51.500Z,69.24
2022-10-19T23:16:19.456Z,69.56
2022-10-19T23:18:47.575Z,69.75
2022-10-19T23:21:15.768Z,70.08
2022-10-19T23:23:43.910Z,70.21
2022-10-19T23:26:20.154Z,70.46
2022-10-19T23:28:49.775Z,70.71
2022-10-19T23:31:24.980Z,70.78
2022-10-19T23:33:53.813Z,71.05
2022-10-19T23:36:27.286Z,71.47
2022-10-19T23:38:57.120Z,71.64
2022-10-19T23:41:28.228Z,71.43
2022-10-19T23:43:56.285Z,71.28
2022-10-19T23:46:24.211Z,71.41
2022-10-19T23:48:52.116Z,71.42
2022-10-19T23:51:21.655Z,71.50
2022-10-19T23:53:51.705Z,71.47
2022-10-19T23:56:28.469Z,71.66
2022-10-19T23:58:56.719Z,71.78
